Time;durP1;ratioP1;P1;durP2;ratioP2;P2;SDS_P1;SDS_P2;PMS_P1;PMS_P2;Temp;Humidity;BMP_temperature;BMP_pressure;BME280_temperature;BME280_humidity;BME280_pressure;Samples;Min_cycle;Max_cycle;Signal;HPM_P1;HPM_P2
2021/04/02 00:00:26;;;;;;;9.47;7.53;;;8.10;99.90;;;;;;5091975;28;20307;-66
2021/04/02 00:02:53;;;;;;;9.60;7.90;;;8.10;99.90;;;;;;5092463;28;20288;-67
2021/04/02 00:05:21;;;;;;;10.97;7.80;;;8.00;99.90;;;;;;5092485;28;20286;-66
2021/04/02 00:07:48;;;;;;;10.27;7.37;;;7.90;99.90;;;;;;5092455;28;20295;-68
2021/04/02 00:10:17;;;;;;;10.53;8.27;;;7.90;99.90;;;;;;5092471;28;20294;-67
2021/04/02 00:12:45;;;;;;;11.53;8.67;;;7.80;99.90;;;;;;5092442;28;20286;-66
2021/04/02 00:15:15;;;;;;;9.77;8.57;;;7.80;99.90;;;;;;5091840;28;20688;-67
2021/04/02 00:17:43;;;;;;;13.07;9.33;;;8.00;99.90;;;;;;5092017;28;20849;-67
2021/04/02 00:20:12;;;;;;;11.43;9.17;;;7.90;99.90;;;;;;5092386;28;20205;-66
2021/04/02 00:22:41;;;;;;;12.70;9.10;;;8.00;99.90;;;;;;5095256;28;20606;-66
2021/04/02 00:25:09;;;;;;;11.80;9.37;;;7.90;99.90;;;;;;5096036;28;20234;-66
2021/04/02 00:27:36;;;;;;;13.23;10.50;;;7.80;99.90;;;;;;5095973;28;20621;-66
2021/04/02 00:30:10;;;;;;;14.27;9.87;;;7.80;99.90;;;;;;5095399;28;20200;-66
2021/04/02 00:32:38;;;;;;;10.60;9.17;;;7.80;99.90;;;;;;5095807;28;20187;-67
2021/04/02 00:35:05;;;;;;;13.13;9.07;;;7.80;99.90;;;;;;5095808;28;20207;-66
2021/04/02 00:37:32;;;;;;;15.07;9.67;;;7.80;99.90;;;;;;5095495;28;20263;-66
2021/04/02 00:39:59;;;;;;;13.50;10.03;;;7.70;99.90;;;;;;5095752;28;20306;-66
2021/04/02 00:42:26;;;;;;;13.77;10.00;;;7.90;99.90;;;;;;5095757;28;20206;-67
2021/04/02 00:44:53;;;;;;;14.30;9.83;;;7.90;99.90;;;;;;5095109;28;20303;-66
2021/04/02 00:47:20;;;;;;;12.87;9.87;;;7.90;99.90;;;;;;5095596;28;20200;-67
2021/04/02 00:49:48;;;;;;;13.23;9.80;;;7.90;99.90;;;;;;5095469;28;20283;-66
2021/04/02 00:52:14;;;;;;;11.83;9.70;;;8.00;99.90;;;;;;5095504;28;20296;-66
2021/04/02 00:54:41;;;;;;;13.13;9.27;;;8.10;99.90;;;;;;5095552;28;20230;-67
2021/04/02 00:57:08;;;;;;;12.93;9.20;;;8.00;99.90;;;;;;5095010;28;20691;-67
2021/04/02 00:59:35;;;;;;;11.93;8.87;;;8.10;99.90;;;;;;5094949;28;20249;-67
2021/04/02 01:02:02;;;;;;;10.47;8.53;;;8.10;99.90;;;;;;5095075;28;20200;-67
2021/04/02 01:04:31;;;;;;;11.97;8.83;;;8.10;99.90;;;;;;5095241;28;20199;-66
2021/04/02 01:06:59;;;;;;;12.00;8.87;;;8.10;99.90;;;;;;5094865;28;20726;-66
2021/04/02 01:09:26;;;;;;;13.37;9.67;;;7.90;99.90;;;;;;5095204;28;20204;-67
2021/04/02 01:11:53;;;;;;;11.97;9.60;;;7.90;99.90;;;;;;5095061;28;20200;-66
2021/04/02 01:14:22;;;;;;;15.27;10.10;;;7.80;99.90;;;;;;5094639;28;20196;-67
2021/04/02 01:16:49;;;;;;;13.00;10.03;;;7.70;99.90;;;;;;5094512;28;20310;-66
2021/04/02 01:19:24;;;;;;;15.03;10.00;;;7.90;99.90;;;;;;5094764;28;20691;-67
2021/04/02 01:21:54;;;;;;;14.40;9.73;;;7.80;99.90;;;;;;5094815;28;20282;-66
2021/04/02 01:24:48;;;;;;;15.00;10.53;;;7.90;99.90;;;;;;5094544;28;20746;-66
2021/04/02 01:27:27;;;;;;;13.03;9.67;;;7.90;99.90;;;;;;5094421;28;20311;-66
2021/04/02 01:30:00;;;;;;;13.80;9.77;;;7.90;99.90;;;;;;5094504;28;20187;-66
2021/04/02 01:32:31;;;;;;;13.87;9.73;;;8.00;99.90;;;;;;5094461;28;20241;-66
2021/04/02 01:35:01;;;;;;;11.60;8.90;;;7.90;99.90;;;;;;5094430;28;20191;-66
2021/04/02 01:37:34;;;;;;;11.23;8.90;;;7.80;99.90;;;;;;5094605;28;20678;-66
2021/04/02 01:40:05;;;;;;;10.67;7.03;;;7.80;99.90;;;;;;5094556;28;20193;-66
2021/04/02 01:42:34;;;;;;;9.13;7.40;;;7.90;99.90;;;;;;5094166;28;20218;-66
2021/04/02 01:45:03;;;;;;;9.60;6.87;;;7.90;99.90;;;;;;5093842;28;20207;-67
2021/04/02 01:47:31;;;;;;;9.10;6.90;;;7.80;99.90;;;;;;5094054;28;20281;-66
2021/04/02 01:50:00;;;;;;;8.03;5.53;;;7.80;99.90;;;;;;5094346;28;20211;-66
2021/04/02 01:52:28;;;;;;;7.87;5.57;;;7.70;99.90;;;;;;5094186;28;20206;-66
2021/04/02 01:54:57;;;;;;;6.77;5.43;;;7.60;99.90;;;;;;5093872;28;20207;-67
2021/04/02 01:57:25;;;;;;;7.47;4.97;;;7.60;99.90;;;;;;5094226;28;20298;-66
2021/04/02 01:59:53;;;;;;;6.73;5.40;;;7.50;99.90;;;;;;5093701;28;20213;-67
2021/04/02 02:02:22;;;;;;;7.37;5.10;;;7.60;99.90;;;;;;5093954;28;20208;-68
2021/04/02 02:04:50;;;;;;;6.63;5.13;;;7.60;99.90;;;;;;5093948;28;20209;-67
2021/04/02 02:07:18;;;;;;;7.47;5.30;;;7.50;99.90;;;;;;5093717;28;20651;-66
2021/04/02 02:09:47;;;;;;;7.23;5.33;;;7.60;99.90;;;;;;5093944;28;20231;-67
2021/04/02 02:12:17;;;;;;;8.23;5.57;;;7.70;99.90;;;;;;5093690;28;20231;-66
2021/04/02 02:14:49;;;;;;;5.73;4.37;;;7.70;99.90;;;;;;5093433;28;20198;-67
2021/04/02 02:17:20;;;;;;;5.80;4.70;;;7.70;99.90;;;;;;5093375;28;20303;-66
2021/04/02 02:19:49;;;;;;;6.33;4.63;;;7.70;99.90;;;;;;5093929;28;20185;-66
2021/04/02 02:22:18;;;;;;;5.67;4.53;;;7.60;99.90;;;;;;5093796;28;20365;-66
2021/04/02 02:24:46;;;;;;;5.50;4.30;;;7.60;99.90;;;;;;5093826;28;20236;-66
2021/04/02 02:27:13;;;;;;;4.57;3.87;;;7.60;99.90;;;;;;5093254;28;20227;-66
2021/04/02 02:29:40;;;;;;;5.33;3.83;;;7.50;99.90;;;;;;5092996;28;20289;-65
2021/04/02 02:32:08;;;;;;;3.73;3.30;;;7.50;99.90;;;;;;5093159;28;20290;-66
2021/04/02 02:34:35;;;;;;;4.57;3.50;;;7.30;99.90;;;;;;5093502;28;20206;-66
2021/04/02 02:37:03;;;;;;;3.67;2.97;;;7.30;99.90;;;;;;5093431;28;20257;-67
2021/04/02 02:39:31;;;;;;;4.20;3.50;;;7.30;99.90;;;;;;5093185;28;20651;-66
2021/04/02 02:42:02;;;;;;;4.33;3.43;;;7.30;99.90;;;;;;5093322;28;20209;-66
2021/04/02 02:44:29;;;;;;;3.80;3.30;;;7.20;99.90;;;;;;5092514;28;20188;-65
2021/04/02 02:46:56;;;;;;;3.70;3.40;;;7.10;99.90;;;;;;5093209;28;20198;-66
2021/04/02 02:49:25;;;;;;;3.87;3.30;;;6.90;99.90;;;;;;5093026;28;20298;-67
2021/04/02 02:51:56;;;;;;;3.43;3.07;;;6.80;99.90;;;;;;5093188;28;20301;-67
2021/04/02 02:54:24;;;;;;;3.60;3.30;;;6.90;99.90;;;;;;5093196;28;20271;-66
2021/04/02 02:56:54;;;;;;;4.00;3.33;;;6.80;99.90;;;;;;5093214;28;20239;-65
2021/04/02 02:59:25;;;;;;;3.30;3.00;;;6.70;99.90;;;;;;5092480;28;20564;-66
2021/04/02 03:01:53;;;;;;;3.03;2.73;;;6.70;99.90;;;;;;5092763;28;20642;-67
2021/04/02 03:04:22;;;;;;;3.27;2.97;;;6.80;99.90;;;;;;5092829;28;20206;-65
2021/04/02 03:06:52;;;;;;;3.20;2.90;;;6.70;99.90;;;;;;5092759;28;20300;-65
2021/04/02 03:09:21;;;;;;;3.30;3.00;;;6.60;99.90;;;;;;5092927;28;20292;-66
2021/04/02 03:11:50;;;;;;;3.50;3.00;;;6.60;99.90;;;;;;5092790;28;20732;-68
2021/04/02 03:14:18;;;;;;;3.73;3.30;;;6.60;99.90;;;;;;5092261;28;20203;-66
2021/04/02 03:16:48;;;;;;;3.73;2.93;;;6.60;99.90;;;;;;5092754;28;20204;-66
2021/04/02 03:19:17;;;;;;;3.10;2.80;;;6.60;99.90;;;;;;5092938;28;20202;-65
2021/04/02 03:21:46;;;;;;;3.73;3.10;;;6.70;99.90;;;;;;5092896;28;20226;-66
2021/04/02 03:24:14;;;;;;;3.00;2.70;;;6.60;99.90;;;;;;5092857;28;20302;-67
2021/04/02 03:26:43;;;;;;;3.03;2.73;;;6.50;99.90;;;;;;5092455;28;20576;-66
2021/04/02 03:29:13;;;;;;;2.90;2.50;;;6.50;99.90;;;;;;5092492;28;20333;-67
2021/04/02 03:31:43;;;;;;;3.70;2.67;;;6.40;99.90;;;;;;5092753;28;20230;-67
2021/04/02 03:34:12;;;;;;;3.33;2.90;;;6.40;99.90;;;;;;5092540;28;20211;-66
2021/04/02 03:36:42;;;;;;;3.03;2.73;;;6.30;99.90;;;;;;5098843;28;20294;-67
2021/04/02 03:39:12;;;;;;;4.33;3.10;;;6.30;99.90;;;;;;5100619;28;20213;-67
2021/04/02 03:41:41;;;;;;;3.90;3.10;;;6.20;99.90;;;;;;5095039;28;20212;-66
2021/04/02 03:44:13;;;;;;;3.83;3.07;;;6.10;99.90;;;;;;5091817;28;20301;-66
2021/04/02 03:46:42;;;;;;;3.20;2.90;;;6.00;99.90;;;;;;5092605;28;20273;-66
2021/04/02 03:49:13;;;;;;;4.63;3.17;;;5.90;99.90;;;;;;5092626;28;20220;-65
2021/04/02 03:51:43;;;;;;;4.33;3.30;;;6.00;99.90;;;;;;5092794;28;20286;-66
2021/04/02 03:54:12;;;;;;;3.50;3.20;;;6.00;99.90;;;;;;5092269;28;20293;-67
2021/04/02 03:56:42;;;;;;;4.87;3.27;;;6.10;99.90;;;;;;5094452;28;20562;-66
2021/04/02 03:59:10;;;;;;;3.67;3.07;;;6.00;99.90;;;;;;5096111;28;20272;-67
2021/04/02 04:01:43;;;;;;;4.50;3.27;;;6.10;99.90;;;;;;5096241;28;20214;-65
2021/04/02 04:04:11;;;;;;;4.03;3.47;;;6.10;99.90;;;;;;5096523;28;20183;-67
2021/04/02 04:06:40;;;;;;;4.03;3.17;;;6.00;99.90;;;;;;5096373;28;20238;-66
2021/04/02 04:09:11;;;;;;;3.73;3.37;;;5.90;99.90;;;;;;5096108;28;20230;-66
2021/04/02 04:11:40;;;;;;;5.40;3.67;;;6.00;99.90;;;;;;5094826;28;20231;-66
2021/04/02 04:14:08;;;;;;;3.70;3.30;;;5.90;99.90;;;;;;5095957;28;20230;-67
2021/04/02 04:16:38;;;;;;;3.40;3.10;;;5.90;99.90;;;;;;5096099;28;20288;-67
2021/04/02 04:19:06;;;;;;;3.63;3.10;;;6.00;99.90;;;;;;5095811;28;20226;-67
2021/04/02 04:21:37;;;;;;;3.50;3.20;;;6.10;99.90;;;;;;5096184;28;20565;-65
2021/04/02 04:24:06;;;;;;;3.90;2.83;;;6.20;99.90;;;;;;5095954;28;20609;-68
2021/04/02 04:26:33;;;;;;;4.00;3.03;;;6.20;99.90;;;;;;5095552;28;20713;-67
2021/04/02 04:29:02;;;;;;;4.13;3.00;;;6.20;99.90;;;;;;5095939;28;20611;-66
2021/04/02 04:31:31;;;;;;;3.50;2.77;;;6.30;99.90;;;;;;5095616;28;20217;-67
2021/04/02 04:34:01;;;;;;;3.30;3.00;;;6.40;99.90;;;;;;5095561;28;20733;-67
2021/04/02 04:36:29;;;;;;;9.57;3.20;;;6.30;99.90;;;;;;5095866;28;20210;-67
2021/04/02 04:38:58;;;;;;;3.20;2.57;;;6.30;99.90;;;;;;5095804;28;20268;-66
2021/04/02 04:41:26;;;;;;;3.03;2.73;;;6.30;99.90;;;;;;5095457;28;20670;-68
2021/04/02 04:43:55;;;;;;;5.10;2.97;;;6.30;99.90;;;;;;5095257;28;20296;-67
2021/04/02 04:46:22;;;;;;;4.73;2.97;;;6.40;99.90;;;;;;5095376;28;20210;-65
2021/04/02 04:48:49;;;;;;;3.30;2.50;;;6.40;99.90;;;;;;5095406;28;20293;-67
2021/04/02 04:51:18;;;;;;;2.80;2.47;;;6.50;99.90;;;;;;5095615;28;20210;-68
2021/04/02 04:53:50;;;;;;;3.10;2.80;;;6.50;99.90;;;;;;5095081;28;20697;-67
2021/04/02 04:56:18;;;;;;;2.77;2.40;;;6.60;99.90;;;;;;5095187;28;20280;-67
2021/04/02 04:58:49;;;;;;;2.40;2.20;;;6.50;99.90;;;;;;5094943;28;20690;-66
2021/04/02 05:01:18;;;;;;;2.63;2.43;;;6.50;99.90;;;;;;5095049;28;20710;-66
2021/04/02 05:03:46;;;;;;;3.30;2.40;;;6.50;99.90;;;;;;5095039;28;20690;-66
2021/04/02 05:06:15;;;;;;;3.47;2.90;;;6.50;99.90;;;;;;5095108;28;20642;-65
2021/04/02 05:08:44;;;;;;;2.90;2.20;;;6.50;99.90;;;;;;5095024;28;20286;-67
2021/04/02 05:11:15;;;;;;;3.27;2.40;;;6.50;99.90;;;;;;5095264;28;20230;-66
2021/04/02 05:13:44;;;;;;;3.20;2.40;;;6.60;99.90;;;;;;5095076;28;20183;-68
2021/04/02 05:16:12;;;;;;;2.93;2.63;;;6.70;99.90;;;;;;5094982;28;20207;-66
2021/04/02 05:18:40;;;;;;;4.17;2.40;;;6.70;99.90;;;;;;5094818;28;20227;-66
2021/04/02 05:21:07;;;;;;;2.80;2.60;;;6.70;99.90;;;;;;5095127;28;20202;-68
2021/04/02 05:23:34;;;;;;;2.63;2.30;;;6.80;99.90;;;;;;5095009;28;20202;-68
2021/04/02 05:26:01;;;;;;;2.60;2.40;;;6.80;99.90;;;;;;5094556;28;20291;-65
2021/04/02 05:28:29;;;;;;;2.57;2.37;;;6.80;99.90;;;;;;5094715;28;20551;-66
2021/04/02 05:30:57;;;;;;;2.70;2.50;;;6.80;99.90;;;;;;5091835;28;20286;-67
2021/04/02 05:33:24;;;;;;;2.93;2.50;;;6.80;99.90;;;;;;5094254;28;20248;-66
2021/04/02 05:35:50;;;;;;;2.40;2.20;;;6.70;99.90;;;;;;5094719;28;20206;-66
2021/04/02 05:38:17;;;;;;;2.13;1.93;;;6.80;99.90;;;;;;5094507;28;20310;-66
2021/04/02 05:41:07;;;;;;;2.70;1.70;;;6.70;99.90;;;;;;5094277;28;20196;-66
2021/04/02 05:43:38;;;;;;;2.43;1.93;;;6.70;99.90;;;;;;5093728;28;20730;-66
2021/04/02 05:46:06;;;;;;;2.10;1.90;;;6.80;99.90;;;;;;5093723;28;20215;-66
2021/04/02 05:48:33;;;;;;;2.10;1.90;;;6.80;99.90;;;;;;5094252;28;20199;-66
2021/04/02 05:51:00;;;;;;;2.47;1.60;;;6.80;99.90;;;;;;5094198;28;20247;-65
2021/04/02 05:53:29;;;;;;;2.17;1.93;;;6.90;99.90;;;;;;5094183;28;20600;-66
2021/04/02 05:56:02;;;;;;;1.90;1.67;;;6.90;99.90;;;;;;5094252;28;20252;-66
2021/04/02 05:58:30;;;;;;;3.27;1.80;;;6.90;99.90;;;;;;5093928;28;20217;-65
2021/04/02 06:00:58;;;;;;;2.10;1.80;;;6.90;99.90;;;;;;5093744;28;20198;-66
2021/04/02 06:03:26;;;;;;;2.57;1.67;;;6.80;99.90;;;;;;5094029;28;20230;-66
2021/04/02 06:05:52;;;;;;;1.87;1.50;;;6.70;99.90;;;;;;5093904;28;20496;-66
2021/04/02 06:08:19;;;;;;;1.50;1.40;;;6.70;99.90;;;;;;5093610;28;20207;-66
2021/04/02 06:10:47;;;;;;;2.17;1.33;;;6.70;99.90;;;;;;5093984;28;20205;-65
2021/04/02 06:13:14;;;;;;;2.53;1.40;;;6.60;99.90;;;;;;5093628;28;20230;-68
2021/04/02 06:15:40;;;;;;;3.33;1.60;;;6.40;99.90;;;;;;5093199;28;20298;-66
2021/04/02 06:18:10;;;;;;;3.10;1.50;;;6.50;99.90;;;;;;5093007;28;20219;-65
2021/04/02 06:20:38;;;;;;;2.43;1.80;;;6.40;99.90;;;;;;5093250;28;20252;-66
2021/04/02 06:23:12;;;;;;;2.90;1.80;;;6.40;99.90;;;;;;5093546;28;20227;-65
2021/04/02 06:25:49;;;;;;;2.90;2.20;;;6.40;99.90;;;;;;5093242;28;20225;-65
2021/04/02 06:28:21;;;;;;;3.10;2.53;;;6.30;99.90;;;;;;5093190;28;20289;-65
2021/04/02 06:30:58;;;;;;;3.70;2.10;;;6.30;99.90;;;;;;5092480;28;20612;-66
2021/04/02 06:33:35;;;;;;;2.93;2.13;;;6.30;99.90;;;;;;5093433;28;20194;-66
2021/04/02 06:36:03;;;;;;;2.93;2.33;;;6.40;99.90;;;;;;5093312;28;20190;-65
2021/04/02 06:38:33;;;;;;;2.40;2.20;;;6.40;99.90;;;;;;5093110;28;20218;-65
2021/04/02 06:41:02;;;;;;;2.73;2.37;;;6.40;99.90;;;;;;5093072;28;20209;-66
2021/04/02 06:43:40;;;;;;;4.30;2.43;;;6.50;99.90;;;;;;5092837;28;20581;-66
2021/04/02 06:46:12;;;;;;;3.43;2.27;;;6.60;99.90;;;;;;5092711;28;20183;-66
2021/04/02 06:48:41;;;;;;;4.00;2.30;;;6.60;99.90;;;;;;5092670;28;20208;-65
2021/04/02 06:51:12;;;;;;;3.13;2.40;;;6.50;99.90;;;;;;5092782;28;20259;-65
2021/04/02 06:53:40;;;;;;;3.57;2.30;;;6.60;99.90;;;;;;5092837;28;20290;-66
2021/04/02 06:56:10;;;;;;;3.27;2.33;;;6.70;99.90;;;;;;5092791;28;20214;-66
2021/04/02 06:58:38;;;;;;;2.60;2.30;;;6.70;99.90;;;;;;5092592;28;20766;-67
2021/04/02 07:01:06;;;;;;;2.60;2.27;;;6.70;99.90;;;;;;5092390;28;20201;-64
2021/04/02 07:03:34;;;;;;;3.07;2.40;;;6.60;99.90;;;;;;5093107;28;20231;-64
2021/04/02 07:06:04;;;;;;;2.40;2.20;;;6.60;99.90;;;;;;5092762;28;20662;-66
2021/04/02 07:08:32;;;;;;;5.10;2.33;;;6.60;99.90;;;;;;5092925;28;20284;-65
2021/04/02 07:11:00;;;;;;;2.80;2.50;;;6.60;99.90;;;;;;5091662;28;20212;-66
2021/04/02 07:13:32;;;;;;;4.33;3.10;;;6.50;99.90;;;;;;5082514;28;20232;-66
2021/04/02 07:15:59;;;;;;;3.77;3.40;;;6.50;99.90;;;;;;5074028;28;20199;-65
2021/04/02 07:18:27;;;;;;;4.33;2.97;;;6.60;99.90;;;;;;5073211;28;20226;-65
2021/04/02 07:20:55;;;;;;;3.13;2.57;;;6.60;99.90;;;;;;5083921;28;20298;-65
2021/04/02 07:23:23;;;;;;;3.40;2.70;;;6.70;99.90;;;;;;5079664;28;20212;-66
2021/04/02 07:25:50;;;;;;;6.00;2.80;;;6.80;99.90;;;;;;5072271;28;20343;-65
2021/04/02 07:28:18;;;;;;;3.67;2.90;;;6.90;99.90;;;;;;5072581;28;20211;-65
2021/04/02 07:30:46;;;;;;;3.40;2.37;;;6.70;99.90;;;;;;5082577;28;20250;-66
2021/04/02 07:33:14;;;;;;;3.23;2.53;;;6.70;99.90;;;;;;5079496;28;20682;-65
2021/04/02 07:35:42;;;;;;;3.63;2.73;;;6.80;99.90;;;;;;5091769;28;20214;-66
2021/04/02 07:38:14;;;;;;;2.97;2.60;;;7.00;99.90;;;;;;5088418;28;20319;-66
2021/04/02 07:40:48;;;;;;;3.20;2.70;;;7.10;99.90;;;;;;5086261;28;20198;-65
2021/04/02 07:43:15;;;;;;;3.33;2.70;;;7.00;99.90;;;;;;5100383;28;20673;-65
2021/04/02 07:45:50;;;;;;;3.43;2.30;;;7.10;99.90;;;;;;5094260;28;20255;-65
2021/04/02 07:48:22;;;;;;;2.50;2.30;;;7.40;99.90;;;;;;5085208;28;20199;-66
2021/04/02 07:50:51;;;;;;;2.33;2.07;;;7.30;99.90;;;;;;5089625;28;20297;-65
2021/04/02 07:53:38;;;;;;;5.57;2.57;;;7.50;99.90;;;;;;5092272;28;20209;-66
2021/04/02 07:56:10;;;;;;;2.77;1.90;;;7.60;99.90;;;;;;5092406;28;20410;-65
2021/04/02 07:58:41;;;;;;;2.50;2.20;;;7.70;99.90;;;;;;5088282;28;20258;-65
2021/04/02 08:01:09;;;;;;;3.93;1.80;;;7.80;99.90;;;;;;5096053;28;20189;-66
2021/04/02 08:03:36;;;;;;;3.23;2.20;;;7.90;99.90;;;;;;5084930;28;20192;-65
2021/04/02 08:06:06;;;;;;;3.13;2.30;;;7.80;99.90;;;;;;5091365;28;20200;-66
2021/04/02 08:08:44;;;;;;;2.83;2.20;;;7.20;99.90;;;;;;5092546;28;20198;-66
2021/04/02 08:11:16;;;;;;;2.37;1.90;;;7.30;99.90;;;;;;5092734;28;20211;-65
2021/04/02 08:13:47;;;;;;;3.10;2.10;;;7.60;99.90;;;;;;5090580;28;20280;-65
2021/04/02 08:16:48;;;;;;;4.23;2.03;;;7.90;99.90;;;;;;5094345;28;20287;-65
2021/04/02 08:19:21;;;;;;;2.73;2.00;;;8.00;99.90;;;;;;5096122;28;20205;-65
2021/04/02 08:21:51;;;;;;;2.30;2.10;;;8.00;99.90;;;;;;5096337;28;20270;-65
2021/04/02 08:24:19;;;;;;;3.40;2.00;;;8.10;99.90;;;;;;5088975;28;20306;-66
2021/04/02 08:26:48;;;;;;;2.40;2.20;;;8.10;99.90;;;;;;5083017;28;20239;-65
2021/04/02 08:29:16;;;;;;;2.40;1.87;;;8.20;99.90;;;;;;5075211;28;20204;-65
2021/04/02 08:31:45;;;;;;;2.30;2.10;;;8.10;99.90;;;;;;5075411;28;20211;-65
2021/04/02 08:34:17;;;;;;;3.43;2.23;;;8.20;99.90;;;;;;5079164;28;20202;-66
2021/04/02 08:36:46;;;;;;;2.47;2.27;;;8.20;99.90;;;;;;5095770;28;20191;-66
2021/04/02 08:39:14;;;;;;;2.53;2.30;;;8.50;99.90;;;;;;5095412;28;20243;-66
2021/04/02 08:41:41;;;;;;;2.67;2.47;;;8.60;99.90;;;;;;5094868;28;20206;-65
2021/04/02 08:44:10;;;;;;;3.03;2.30;;;8.60;99.90;;;;;;5095197;28;20246;-66
2021/04/02 08:46:41;;;;;;;2.93;2.47;;;8.40;99.90;;;;;;5088766;28;20262;-65
2021/04/02 08:49:09;;;;;;;4.33;2.80;;;8.30;99.90;;;;;;5090422;28;20247;-64
2021/04/02 08:51:36;;;;;;;3.63;3.00;;;8.20;99.90;;;;;;5083390;28;20259;-65
2021/04/02 08:54:10;;;;;;;3.83;2.53;;;8.10;99.90;;;;;;5091680;28;20199;-65
2021/04/02 08:56:37;;;;;;;3.33;2.50;;;8.10;99.90;;;;;;5095356;28;20218;-66
2021/04/02 08:59:07;;;;;;;3.47;2.93;;;8.30;99.90;;;;;;5094460;28;20228;-66
2021/04/02 09:01:41;;;;;;;3.07;2.63;;;8.10;99.90;;;;;;5094807;28;20295;-66
2021/04/02 09:04:10;;;;;;;3.27;2.80;;;8.20;99.90;;;;;;5095055;28;20195;-66
2021/04/02 09:06:37;;;;;;;3.93;2.53;;;8.30;99.90;;;;;;5094658;28;20282;-65
2021/04/02 09:09:13;;;;;;;3.40;2.80;;;8.40;99.90;;;;;;5095035;28;20239;-65
2021/04/02 09:11:39;;;;;;;4.17;2.70;;;8.40;99.90;;;;;;5094746;28;20732;-66
2021/04/02 09:14:08;;;;;;;3.37;2.93;;;8.30;99.90;;;;;;5080162;28;20287;-66
2021/04/02 09:16:38;;;;;;;3.37;2.77;;;8.10;99.90;;;;;;5074618;28;20656;-64
2021/04/02 09:19:05;;;;;;;5.00;3.00;;;8.10;99.90;;;;;;5089829;28;20220;-65
2021/04/02 09:21:51;;;;;;;4.87;3.30;;;8.10;99.90;;;;;;5078411;28;20287;-65
2021/04/02 09:24:18;;;;;;;3.97;3.30;;;8.00;99.90;;;;;;5087013;28;20204;-63
2021/04/02 09:26:45;;;;;;;3.93;3.17;;;7.90;99.90;;;;;;5088263;28;20230;-62
2021/04/02 09:29:14;;;;;;;3.60;2.63;;;7.70;99.90;;;;;;5093683;28;20603;-62
2021/04/02 09:31:43;;;;;;;3.20;2.90;;;7.80;99.90;;;;;;5094244;28;20197;-63
2021/04/02 09:34:12;;;;;;;3.40;3.10;;;7.80;99.90;;;;;;5076769;28;20239;-63
2021/04/02 09:36:40;;;;;;;4.43;3.37;;;8.00;99.90;;;;;;5081872;28;20200;-63
2021/04/02 09:39:10;;;;;;;3.60;2.97;;;7.90;99.90;;;;;;5094094;28;20300;-64
2021/04/02 09:41:42;;;;;;;3.33;3.00;;;8.10;99.90;;;;;;5094240;28;20294;-63
2021/04/02 09:44:10;;;;;;;3.17;2.87;;;8.30;99.90;;;;;;5093772;28;20184;-63
2021/04/02 09:46:39;;;;;;;4.17;3.17;;;8.20;99.90;;;;;;5094007;28;20636;-62
2021/04/02 09:49:10;;;;;;;3.20;2.90;;;8.40;99.90;;;;;;5094221;28;20231;-67
2021/04/02 09:51:39;;;;;;;3.37;3.07;;;8.40;99.90;;;;;;5090710;28;20188;-68
2021/04/02 09:54:10;;;;;;;3.40;2.63;;;8.40;99.90;;;;;;5090108;28;20584;-68
2021/04/02 09:56:38;;;;;;;3.40;2.70;;;8.40;99.90;;;;;;5075929;28;20205;-65
2021/04/02 09:59:06;;;;;;;3.90;2.83;;;8.40;99.90;;;;;;5084431;28;20228;-65
2021/04/02 10:01:34;;;;;;;4.43;2.67;;;8.40;99.90;;;;;;5075694;28;20215;-66
2021/04/02 10:04:01;;;;;;;3.93;2.70;;;8.50;99.90;;;;;;5077693;28;20308;-65
2021/04/02 10:06:29;;;;;;;3.03;2.80;;;8.70;99.90;;;;;;5078226;28;20747;-65
2021/04/02 10:08:56;;;;;;;4.57;3.07;;;8.70;99.90;;;;;;5081127;28;20239;-66
2021/04/02 10:11:24;;;;;;;3.30;3.00;;;8.80;99.90;;;;;;5073014;28;20684;-67
2021/04/02 10:13:51;;;;;;;3.40;3.00;;;8.90;99.90;;;;;;5085666;28;20938;-66
2021/04/02 10:16:18;;;;;;;3.73;3.20;;;8.90;99.90;;;;;;5085014;28;20643;-66
2021/04/02 10:18:47;;;;;;;3.03;2.73;;;9.10;99.90;;;;;;5079210;28;20356;-63
2021/04/02 10:21:14;;;;;;;2.83;2.50;;;9.30;99.90;;;;;;5072247;28;20258;-62
2021/04/02 10:23:42;;;;;;;3.57;2.60;;;9.40;99.90;;;;;;5086841;28;20214;-65
2021/04/02 10:26:10;;;;;;;3.10;2.70;;;9.30;99.90;;;;;;5092396;28;20231;-64
2021/04/02 10:28:37;;;;;;;2.57;2.37;;;9.40;99.90;;;;;;5092105;28;20560;-64
2021/04/02 10:31:04;;;;;;;4.93;2.60;;;9.60;99.90;;;;;;5092648;28;20546;-62
2021/04/02 10:33:31;;;;;;;2.97;2.70;;;9.60;99.90;;;;;;5092500;28;20305;-65
2021/04/02 10:35:58;;;;;;;2.80;2.50;;;9.70;99.90;;;;;;5092559;28;20232;-61
2021/04/02 10:38:25;;;;;;;2.10;1.90;;;9.90;99.90;;;;;;5074041;28;20228;-60
2021/04/02 10:40:54;;;;;;;2.83;2.50;;;10.10;99.90;;;;;;5072017;28;20212;-61
2021/04/02 10:43:22;;;;;;;3.53;2.97;;;10.10;99.90;;;;;;5071522;28;20647;-61
2021/04/02 10:45:49;;;;;;;2.73;2.53;;;10.50;99.90;;;;;;5071744;28;20207;-63
2021/04/02 10:48:16;;;;;;;2.40;2.20;;;10.80;99.90;;;;;;5077257;28;20664;-63
2021/04/02 10:50:44;;;;;;;2.57;2.30;;;10.80;99.90;;;;;;5079845;28;20224;-69
2021/04/02 10:53:12;;;;;;;3.53;2.40;;;11.10;99.90;;;;;;5083816;28;20204;-60
2021/04/02 10:55:39;;;;;;;2.83;2.50;;;11.20;99.90;;;;;;5087459;28;20847;-62
2021/04/02 10:58:07;;;;;;;2.80;2.50;;;11.50;99.90;;;;;;5091743;28;20203;-64
2021/04/02 11:00:34;;;;;;;2.83;2.40;;;11.70;99.90;;;;;;5091398;28;20214;-63
2021/04/02 11:03:02;;;;;;;2.67;2.47;;;11.70;99.90;;;;;;5089317;28;20261;-64
2021/04/02 11:05:29;;;;;;;3.07;2.70;;;11.60;99.90;;;;;;5091385;28;20287;-64
2021/04/02 11:07:56;;;;;;;2.87;2.30;;;11.50;99.90;;;;;;5091630;28;20199;-64
2021/04/02 11:10:23;;;;;;;2.77;2.50;;;11.20;99.90;;;;;;5091256;28;20286;-64
2021/04/02 11:12:50;;;;;;;3.53;2.50;;;10.80;99.90;;;;;;5091826;28;20269;-53
2021/04/02 11:15:19;;;;;;;2.67;2.30;;;10.50;99.90;;;;;;5091496;28;20735;-55
2021/04/02 11:17:47;;;;;;;2.33;2.13;;;10.50;99.90;;;;;;5090955;28;20202;-55
2021/04/02 11:20:16;;;;;;;2.97;2.30;;;10.20;99.90;;;;;;5091098;28;20220;-56
2021/04/02 11:22:44;;;;;;;3.20;2.20;;;10.40;99.90;;;;;;5084517;28;20675;-53
2021/04/02 11:25:12;;;;;;;3.40;2.47;;;10.70;99.90;;;;;;5079435;28;20212;-56
2021/04/02 11:27:40;;;;;;;2.60;2.40;;;11.00;99.90;;;;;;5071221;28;20327;-56
2021/04/02 11:30:09;;;;;;;3.00;2.50;;;11.10;99.90;;;;;;5073000;28;20299;-64
2021/04/02 11:32:37;;;;;;;2.80;2.53;;;11.00;99.90;;;;;;5081110;28;20727;-62
2021/04/02 11:35:06;;;;;;;3.60;2.77;;;11.20;99.90;;;;;;5074523;28;20205;-62
2021/04/02 11:37:33;;;;;;;2.87;2.60;;;11.00;99.90;;;;;;5074769;28;20295;-63
2021/04/02 11:40:00;;;;;;;2.60;2.40;;;11.10;99.90;;;;;;5090225;28;20253;-62
2021/04/02 11:42:27;;;;;;;3.00;2.70;;;11.20;99.90;;;;;;5091858;28;20250;-62
2021/04/02 11:44:54;;;;;;;3.07;2.73;;;11.30;99.90;;;;;;5091773;28;20387;-61
2021/04/02 11:47:21;;;;;;;4.83;3.10;;;11.30;99.90;;;;;;5091496;28;20303;-58
2021/04/02 11:49:48;;;;;;;3.03;2.73;;;11.40;99.90;;;;;;5091695;28;20296;-57
2021/04/02 11:52:15;;;;;;;2.60;2.40;;;11.50;99.90;;;;;;5091323;28;20635;-58
2021/04/02 11:54:42;;;;;;;4.00;2.80;;;11.50;99.90;;;;;;5091302;28;20691;-64
2021/04/02 11:57:09;;;;;;;2.53;2.33;;;11.70;99.90;;;;;;5091372;28;20294;-62
2021/04/02 11:59:36;;;;;;;3.13;2.47;;;12.10;99.90;;;;;;5091560;28;20311;-62
2021/04/02 12:02:03;;;;;;;3.00;2.17;;;12.40;99.90;;;;;;5091815;28;20202;-64
2021/04/02 12:04:31;;;;;;;2.37;2.17;;;12.70;99.90;;;;;;5092050;28;20294;-62
2021/04/02 12:06:58;;;;;;;2.93;2.63;;;12.80;99.90;;;;;;5092267;28;20620;-63
2021/04/02 12:09:25;;;;;;;3.10;2.17;;;12.60;99.90;;;;;;5092003;28;20196;-64
2021/04/02 12:11:52;;;;;;;2.57;2.37;;;12.40;99.90;;;;;;5091579;28;20295;-63
2021/04/02 12:14:22;;;;;;;2.43;2.23;;;11.80;99.90;;;;;;5092216;28;20209;-59
2021/04/02 12:16:49;;;;;;;2.50;2.30;;;11.40;99.90;;;;;;5092353;28;20287;-63
2021/04/02 12:19:16;;;;;;;2.87;2.57;;;11.10;99.90;;;;;;5090128;28;20252;-59
2021/04/02 12:21:43;;;;;;;2.40;2.20;;;10.80;99.90;;;;;;5094707;28;20279;-60
2021/04/02 12:24:11;;;;;;;3.13;2.43;;;10.90;99.90;;;;;;5094308;28;20220;-61
2021/04/02 12:26:38;;;;;;;2.50;2.30;;;11.00;99.90;;;;;;5094540;28;20320;-62
2021/04/02 12:29:06;;;;;;;3.97;2.50;;;10.80;99.90;;;;;;5094391;28;20216;-60
2021/04/02 12:31:33;;;;;;;3.27;2.67;;;10.70;99.90;;;;;;5091345;28;20226;-60
2021/04/02 12:34:00;;;;;;;3.57;2.87;;;10.70;99.90;;;;;;5094887;28;20206;-58
2021/04/02 12:36:27;;;;;;;3.87;2.67;;;10.90;99.90;;;;;;5095289;28;20277;-59
2021/04/02 12:38:54;;;;;;;2.90;2.63;;;10.80;99.90;;;;;;5094991;28;20295;-59
2021/04/02 12:41:26;;;;;;;4.33;3.00;;;10.80;99.90;;;;;;5095461;28;20289;-59
2021/04/02 12:43:55;;;;;;;2.90;2.53;;;11.00;99.90;;;;;;5094170;28;20295;-64
2021/04/02 12:46:22;;;;;;;3.43;3.13;;;11.20;99.90;;;;;;5091262;28;20208;-65
2021/04/02 12:48:48;;;;;;;3.00;2.60;;;11.40;99.90;;;;;;5081547;28;20249;-64
2021/04/02 12:51:15;;;;;;;3.07;2.77;;;11.60;99.90;;;;;;5092840;28;20219;-63
2021/04/02 12:53:42;;;;;;;3.60;3.30;;;11.60;99.90;;;;;;5092804;28;20279;-65
2021/04/02 12:56:09;;;;;;;3.63;3.30;;;11.70;99.90;;;;;;5086934;28;20273;-63
2021/04/02 12:58:37;;;;;;;3.30;3.00;;;11.60;99.90;;;;;;5085605;28;20204;-64
2021/04/02 13:01:09;;;;;;;4.83;3.30;;;11.60;99.90;;;;;;5078711;28;20197;-64